createdAt,value
2023-01-19T00:01:40.958Z,9.13
2023-01-19T00:04:11.028Z,7.73
2023-01-19T00:06:39.320Z,8.87
2023-01-19T00:09:07.663Z,8.43
2023-01-19T00:11:36.106Z,8.77
2023-01-19T00:14:04.505Z,8.07
2023-01-19T00:16:32.984Z,8.37
2023-01-19T00:19:02.012Z,8.93
2023-01-19T00:21:31.634Z,8.20
2023-01-19T00:24:01.315Z,8.10
2023-01-19T00:26:29.696Z,8.10
2023-01-19T00:28:58.114Z,7.70
2023-01-19T00:31:26.541Z,8.53
2023-01-19T00:33:54.794Z,8.57
2023-01-19T00:36:23.027Z,7.83
2023-01-19T00:38:52.634Z,7.57
2023-01-19T00:41:41.311Z,7.83
2023-01-19T00:44:08.793Z,8.27
2023-01-19T00:46:37.163Z,8.40
2023-01-19T00:49:05.745Z,8.23
2023-01-19T00:51:34.057Z,8.33
2023-01-19T00:54:05.025Z,8.30
2023-01-19T00:56:33.466Z,9.33
2023-01-19T00:59:02.330Z,8.93
2023-01-19T01:01:45.040Z,8.53
2023-01-19T01:04:14.585Z,8.00
2023-01-19T01:06:42.836Z,7.93
2023-01-19T01:09:12.956Z,8.90
2023-01-19T01:11:42.246Z,8.00
2023-01-19T01:14:11.847Z,9.03
2023-01-19T01:16:40.283Z,8.30
2023-01-19T01:19:08.755Z,7.03
2023-01-19T01:21:37.368Z,8.13
2023-01-19T01:24:06.206Z,8.10
2023-01-19T01:26:35.890Z,8.07
2023-01-19T01:29:04.298Z,8.67
2023-01-19T01:31:32.595Z,8.47
2023-01-19T01:34:01.522Z,8.57
2023-01-19T01:36:32.219Z,8.67
2023-01-19T01:39:03.037Z,7.73
2023-01-19T01:41:31.488Z,7.90
2023-01-19T01:44:02.381Z,7.77
2023-01-19T01:46:44.420Z,7.57
2023-01-19T01:49:17.533Z,8.00
2023-01-19T01:51:49.595Z,8.03
2023-01-19T01:54:21.854Z,7.77
2023-01-19T01:56:52.763Z,7.80
2023-01-19T01:59:28.084Z,7.83
2023-01-19T02:02:17.973Z,9.17
2023-01-19T02:04:52.155Z,8.40
2023-01-19T02:07:45.937Z,8.60
2023-01-19T02:10:31.656Z,8.67
2023-01-19T02:13:19.728Z,8.63
2023-01-19T02:15:52.711Z,7.57
2023-01-19T02:18:22.956Z,8.73
2023-01-19T02:21:00.211Z,9.13
2023-01-19T02:23:42.469Z,8.20
2023-01-19T02:26:13.508Z,8.40
2023-01-19T02:28:48.452Z,8.07
2023-01-19T02:31:16.703Z,7.97
2023-01-19T02:33:46.524Z,7.67
2023-01-19T02:36:19.457Z,8.17
2023-01-19T02:38:50.598Z,7.73
2023-01-19T02:41:29.802Z,7.70
2023-01-19T02:43:59.734Z,8.33
2023-01-19T02:46:30.498Z,7.30
2023-01-19T02:49:00.665Z,8.47
2023-01-19T02:51:30.168Z,8.37
2023-01-19T02:54:31.994Z,7.93
2023-01-19T02:57:27.865Z,7.97
2023-01-19T03:00:14.205Z,8.23
2023-01-19T03:02:58.051Z,8.10
2023-01-19T03:05:35.310Z,8.33
2023-01-19T03:08:15.369Z,8.47
2023-01-19T03:10:55.223Z,8.27
2023-01-19T03:13:33.168Z,7.77
2023-01-19T03:16:10.408Z,7.87
2023-01-19T03:18:39.364Z,8.07
2023-01-19T03:21:10.042Z,8.80
2023-01-19T03:23:42.935Z,8.30
2023-01-19T03:26:19.182Z,8.33
2023-01-19T03:28:51.119Z,8.07
2023-01-19T03:31:22.312Z,8.60
2023-01-19T03:33:53.874Z,8.53
2023-01-19T03:36:30.610Z,8.07
2023-01-19T03:39:02.973Z,7.33
2023-01-19T03:41:35.603Z,7.67
2023-01-19T03:44:06.775Z,7.13
2023-01-19T03:46:40.507Z,7.50
2023-01-19T03:49:10.325Z,7.53
2023-01-19T03:51:40.469Z,8.50
2023-01-19T03:54:10.993Z,6.87
2023-01-19T03:56:40.660Z,7.67
2023-01-19T03:59:08.948Z,6.87
2023-01-19T04:01:37.923Z,8.47
2023-01-19T04:04:06.221Z,8.23
2023-01-19T04:06:34.422Z,8.67
2023-01-19T04:09:04.044Z,8.87
2023-01-19T04:11:32.320Z,8.80
2023-01-19T04:14:03.606Z,8.43
2023-01-19T04:16:32.010Z,8.23
2023-01-19T04:19:00.250Z,9.33
2023-01-19T04:21:29.038Z,8.80
2023-01-19T04:23:57.422Z,8.83
2023-01-19T04:26:25.634Z,8.80
2023-01-19T04:28:53.919Z,8.30
2023-01-19T04:31:24.978Z,8.03
2023-01-19T04:33:53.569Z,9.10
2023-01-19T04:36:24.311Z,8.80
2023-01-19T04:45:29.668Z,9.60
2023-01-19T04:48:02.518Z,9.90
2023-01-19T04:50:32.127Z,9.07
2023-01-19T04:53:01.705Z,8.50
2023-01-19T04:55:32.335Z,9.23
2023-01-19T05:01:57.423Z,9.40
2023-01-19T05:04:27.227Z,9.97
2023-01-19T05:06:58.970Z,9.80
2023-01-19T05:09:28.307Z,10.47
2023-01-19T05:11:56.543Z,10.43
2023-01-19T05:14:29.816Z,10.47
2023-01-19T05:17:00.909Z,10.23
2023-01-19T05:19:31.934Z,10.03
2023-01-19T05:22:00.473Z,9.63
2023-01-19T05:24:30.229Z,10.33
2023-01-19T05:26:59.270Z,10.23
2023-01-19T05:29:27.526Z,10.57
2023-01-19T05:31:55.999Z,10.33
2023-01-19T05:34:24.430Z,10.30
2023-01-19T05:37:00.965Z,10.37
2023-01-19T05:39:45.336Z,9.57
2023-01-19T05:42:15.373Z,10.37
2023-01-19T05:44:49.925Z,9.80
2023-01-19T05:47:33.419Z,10.13
2023-01-19T05:50:04.822Z,10.40
2023-01-19T05:56:53.909Z,9.80
2023-01-19T05:59:25.054Z,10.60
2023-01-19T06:01:53.948Z,9.83
2023-01-19T06:04:26.564Z,10.13
2023-01-19T06:06:56.198Z,10.30
2023-01-19T06:15:59.596Z,9.70
2023-01-19T06:18:28.320Z,10.07
2023-01-19T06:21:06.601Z,10.33
2023-01-19T06:23:39.857Z,10.43
2023-01-19T06:26:28.104Z,9.37
2023-01-19T06:28:57.762Z,10.30
2023-01-19T06:31:33.128Z,10.27
2023-01-19T06:34:16.041Z,9.43
2023-01-19T06:36:48.761Z,10.60
2023-01-19T06:42:48.000Z,10.13
2023-01-19T06:45:20.599Z,10.97
2023-01-19T06:47:51.223Z,10.87
2023-01-19T06:50:24.707Z,9.23
2023-01-19T06:52:55.142Z,9.53
2023-01-19T06:55:50.825Z,11.27
2023-01-19T06:59:25.526Z,10.80
2023-01-19T07:02:01.568Z,12.17
2023-01-19T07:04:53.359Z,10.80
2023-01-19T07:07:23.818Z,11.10
2023-01-19T07:10:24.088Z,11.13
2023-01-19T07:13:13.735Z,9.20
2023-01-19T07:15:45.682Z,9.50
2023-01-19T07:18:31.677Z,10.63
2023-01-19T07:21:01.882Z,9.90
2023-01-19T07:23:34.747Z,11.10
2023-01-19T07:26:05.914Z,10.33
2023-01-19T07:28:40.827Z,9.60
2023-01-19T07:31:19.180Z,10.47
2023-01-19T07:33:51.916Z,9.90
2023-01-19T07:36:27.532Z,10.80
2023-01-19T07:42:13.525Z,9.77
2023-01-19T07:48:02.371Z,9.67
2023-01-19T07:50:51.818Z,10.30
2023-01-19T07:53:40.352Z,9.43
2023-01-19T07:56:20.609Z,10.50
2023-01-19T07:58:50.454Z,11.17
2023-01-19T08:01:24.191Z,9.80
2023-01-19T08:03:54.206Z,9.90
2023-01-19T08:06:27.379Z,9.50
2023-01-19T08:09:10.609Z,9.17
2023-01-19T08:15:10.541Z,9.93
2023-01-19T08:18:04.449Z,9.43
2023-01-19T08:21:12.769Z,9.23
2023-01-19T08:24:25.206Z,9.57
2023-01-19T08:27:11.958Z,8.60
2023-01-19T08:29:52.421Z,7.10
2023-01-19T08:32:57.365Z,8.77
2023-01-19T08:35:31.485Z,6.80
2023-01-19T08:38:03.279Z,8.00
2023-01-19T08:40:40.446Z,7.80
2023-01-19T08:43:17.368Z,8.33
2023-01-19T08:46:12.707Z,6.77
2023-01-19T08:48:58.497Z,7.70
2023-01-19T08:51:28.686Z,7.03
2023-01-19T08:53:59.875Z,7.20
2023-01-19T08:56:32.200Z,7.80
2023-01-19T08:59:34.294Z,7.93
2023-01-19T09:02:11.269Z,7.00
2023-01-19T09:04:44.057Z,7.87
2023-01-19T09:07:15.899Z,6.77
2023-01-19T09:09:45.479Z,6.97
2023-01-19T09:12:38.857Z,7.03
2023-01-19T09:15:18.004Z,6.57
2023-01-19T09:17:46.552Z,5.20
2023-01-19T09:20:33.228Z,7.27
2023-01-19T09:26:18.719Z,7.30
2023-01-19T09:28:54.483Z,6.50
2023-01-19T09:31:24.327Z,6.57
2023-01-19T09:33:55.691Z,5.57
2023-01-19T09:36:24.297Z,6.30
2023-01-19T09:38:56.730Z,6.70
2023-01-19T09:41:27.627Z,7.50
2023-01-19T09:44:02.499Z,6.53
2023-01-19T09:46:39.414Z,6.80
2023-01-19T09:49:16.730Z,7.27
2023-01-19T09:51:48.798Z,6.90
2023-01-19T09:54:22.212Z,6.60
2023-01-19T09:57:04.584Z,5.93
2023-01-19T09:59:47.148Z,6.07
2023-01-19T10:02:37.402Z,6.50
2023-01-19T10:05:21.904Z,7.57
2023-01-19T10:08:19.985Z,6.53
2023-01-19T10:11:10.152Z,7.30
2023-01-19T10:13:45.177Z,7.10
2023-01-19T10:16:44.507Z,6.80
2023-01-19T10:19:26.579Z,7.23
2023-01-19T10:22:00.275Z,6.63
2023-01-19T10:24:52.835Z,7.30
2023-01-19T10:27:36.109Z,8.50
2023-01-19T10:30:11.041Z,7.88
2023-01-19T10:32:52.719Z,7.50
2023-01-19T10:35:25.391Z,7.70
2023-01-19T10:37:57.573Z,7.20
2023-01-19T10:40:36.926Z,7.63
2023-01-19T10:43:41.062Z,7.30
2023-01-19T10:46:18.667Z,5.90
2023-01-19T10:49:00.897Z,5.87
2023-01-19T10:51:36.711Z,5.73
2023-01-19T10:54:38.917Z,5.97
2023-01-19T10:57:20.491Z,5.80
2023-01-19T11:00:06.635Z,6.20
2023-01-19T11:02:52.735Z,6.20
2023-01-19T11:05:30.731Z,6.33
2023-01-19T11:08:02.143Z,5.70
2023-01-19T11:10:33.926Z,7.23
2023-01-19T11:13:21.209Z,8.20
2023-01-19T11:16:00.280Z,6.43
2023-01-19T11:18:31.595Z,7.40
2023-01-19T11:21:14.439Z,7.60
2023-01-19T11:24:00.807Z,7.77
2023-01-19T11:26:34.854Z,6.67
2023-01-19T11:29:06.278Z,6.47
2023-01-19T11:31:37.461Z,6.43
2023-01-19T11:34:28.119Z,7.77
2023-01-19T11:37:06.538Z,7.10
2023-01-19T11:39:47.753Z,7.67
2023-01-19T11:42:19.583Z,8.33
2023-01-19T11:45:11.208Z,7.77
2023-01-19T11:51:17.134Z,8.60
2023-01-19T11:53:56.018Z,8.83
2023-01-19T11:56:30.712Z,10.77
2023-01-19T11:59:00.446Z,9.13
2023-01-19T12:01:38.838Z,8.67
2023-01-19T12:04:17.095Z,9.10
2023-01-19T12:06:51.878Z,9.63
2023-01-19T12:13:05.962Z,9.60
2023-01-19T12:15:59.129Z,11.23
2023-01-19T12:18:46.976Z,9.93
2023-01-19T12:21:29.279Z,9.90
2023-01-19T12:24:13.349Z,9.93
2023-01-19T12:26:56.011Z,10.20
2023-01-19T12:30:01.402Z,10.80
2023-01-19T12:32:38.097Z,10.20
2023-01-19T12:35:29.332Z,10.87
2023-01-19T12:38:00.386Z,10.57
2023-01-19T12:40:35.238Z,9.77
2023-01-19T12:43:19.175Z,10.40
2023-01-19T12:45:51.528Z,11.33
2023-01-19T12:48:31.298Z,11.17
2023-01-19T12:51:04.578Z,9.30
2023-01-19T12:53:39.550Z,10.27
2023-01-19T12:56:20.477Z,10.37
2023-01-19T12:58:54.755Z,11.30
2023-01-19T13:01:29.187Z,10.07
2023-01-19T13:04:08.728Z,10.20
2023-01-19T13:07:10.617Z,11.00
2023-01-19T13:09:42.832Z,10.40
2023-01-19T13:12:22.608Z,12.27
2023-01-19T13:14:54.175Z,10.90
2023-01-19T13:17:35.288Z,10.03
2023-01-19T13:20:29.434Z,11.43
2023-01-19T13:23:23.875Z,10.30
2023-01-19T13:26:10.783Z,9.37
2023-01-19T13:28:45.835Z,10.20
2023-01-19T13:31:20.920Z,10.13
2023-01-19T13:33:53.087Z,10.47
2023-01-19T13:36:31.859Z,10.00
2023-01-19T13:42:39.772Z,10.23
2023-01-19T13:45:19.035Z,10.33
2023-01-19T13:51:18.137Z,10.37
2023-01-19T13:54:14.342Z,13.67
2023-01-19T13:56:47.997Z,11.10
2023-01-19T13:59:16.337Z,10.30
2023-01-19T14:01:46.613Z,11.53
2023-01-19T14:04:36.483Z,10.70
2023-01-19T14:07:15.098Z,9.90
2023-01-19T14:09:43.552Z,10.10
2023-01-19T14:12:58.957Z,10.90
2023-01-19T14:15:37.219Z,9.60
2023-01-19T14:18:27.993Z,10.37
2023-01-19T14:21:08.637Z,10.40
2023-01-19T14:23:43.921Z,10.80
2023-01-19T14:26:43.727Z,10.47
2023-01-19T14:29:18.982Z,9.03
2023-01-19T14:31:49.591Z,9.27
2023-01-19T14:34:39.208Z,10.90
2023-01-19T14:37:21.931Z,10.07
2023-01-19T14:40:04.934Z,10.33
2023-01-19T14:42:45.515Z,11.97
2023-01-19T14:51:59.355Z,11.07
2023-01-19T14:54:40.713Z,10.17
2023-01-19T14:57:50.144Z,10.50
2023-01-19T15:03:45.921Z,10.00
2023-01-19T15:06:41.202Z,10.00
2023-01-19T15:09:27.708Z,10.30
2023-01-19T15:12:26.874Z,10.33
2023-01-19T15:15:15.258Z,9.63
2023-01-19T15:17:45.780Z,13.40
2023-01-19T15:20:17.742Z,14.07
2023-01-19T15:22:46.979Z,12.20
2023-01-19T15:25:35.478Z,13.23
2023-01-19T15:28:12.808Z,11.07
2023-01-19T15:30:55.483Z,9.90
2023-01-19T15:33:25.905Z,10.83
2023-01-19T15:35:54.520Z,10.33
2023-01-19T15:38:41.275Z,9.67
2023-01-19T15:41:16.913Z,10.40
2023-01-19T15:43:52.354Z,9.87
2023-01-19T15:46:21.999Z,9.27
2023-01-19T15:48:51.891Z,10.13
2023-01-19T15:51:53.288Z,9.60
2023-01-19T15:54:22.221Z,10.53
2023-01-19T15:56:54.374Z,10.70
2023-01-19T15:59:26.128Z,9.57
2023-01-19T16:01:55.079Z,10.57
2023-01-19T16:04:45.099Z,9.97
2023-01-19T16:07:13.620Z,11.40
2023-01-19T16:09:50.667Z,11.43
2023-01-19T16:12:19.432Z,10.60
2023-01-19T16:15:11.210Z,11.60
2023-01-19T16:24:20.618Z,10.90
2023-01-19T16:27:26.610Z,12.60
2023-01-19T16:29:57.644Z,11.87
2023-01-19T16:32:26.050Z,10.73
2023-01-19T16:34:55.608Z,12.03
2023-01-19T16:38:10.269Z,14.90
2023-01-19T16:40:56.230Z,11.67
2023-01-19T16:43:34.168Z,11.37
2023-01-19T16:46:10.625Z,11.27
2023-01-19T16:48:43.531Z,11.33
2023-01-19T16:51:12.204Z,11.80
2023-01-19T16:53:40.516Z,11.60
2023-01-19T16:56:13.429Z,10.40
2023-01-19T16:58:41.927Z,10.20
2023-01-19T17:01:15.166Z,12.03
2023-01-19T17:04:18.641Z,11.33
2023-01-19T17:06:47.747Z,10.83
2023-01-19T17:09:20.984Z,11.30
2023-01-19T17:12:46.808Z,11.17
2023-01-19T17:15:18.985Z,12.10
2023-01-19T17:17:48.136Z,11.23
2023-01-19T17:20:19.034Z,12.43
2023-01-19T17:22:47.753Z,10.77
2023-01-19T17:28:29.344Z,11.77
2023-01-19T17:31:07.448Z,10.90
2023-01-19T17:33:36.828Z,10.73
2023-01-19T17:36:15.032Z,10.63
2023-01-19T17:41:52.869Z,10.10
2023-01-19T17:44:22.663Z,10.83
2023-01-19T17:46:58.049Z,10.37
2023-01-19T17:49:43.671Z,11.27
2023-01-19T17:52:17.890Z,10.70
2023-01-19T17:54:58.488Z,10.33
2023-01-19T17:57:31.658Z,9.70
2023-01-19T18:00:04.228Z,10.27
2023-01-19T18:02:36.509Z,9.30
2023-01-19T18:06:03.934Z,9.60
2023-01-19T18:08:36.378Z,7.73
2023-01-19T18:11:09.138Z,8.57
2023-01-19T18:17:14.112Z,8.70
2023-01-19T18:19:54.815Z,7.87
2023-01-19T18:22:23.279Z,8.40
2023-01-19T18:24:51.899Z,9.20
2023-01-19T18:27:21.957Z,10.80
2023-01-19T18:29:50.453Z,10.47
2023-01-19T18:32:18.780Z,8.53
2023-01-19T18:34:47.112Z,9.30
2023-01-19T18:37:34.873Z,9.60
2023-01-19T18:40:13.411Z,9.93
2023-01-19T18:42:51.240Z,9.80
2023-01-19T18:45:32.770Z,9.87
2023-01-19T18:48:12.539Z,10.07
2023-01-19T18:50:41.342Z,10.80
2023-01-19T18:53:13.565Z,11.70
2023-01-19T18:55:52.954Z,11.53
2023-01-19T18:58:22.013Z,12.37
2023-01-19T19:00:51.749Z,12.90
2023-01-19T19:03:29.542Z,13.10
2023-01-19T19:06:05.826Z,12.97
2023-01-19T19:08:36.588Z,13.27
2023-01-19T19:11:19.471Z,14.10
2023-01-19T19:13:56.047Z,14.30
2023-01-19T19:16:26.235Z,15.07
2023-01-19T19:18:57.623Z,18.53
2023-01-19T19:21:27.850Z,17.03
2023-01-19T19:23:59.825Z,14.77
2023-01-19T19:26:30.199Z,14.60
2023-01-19T19:28:58.680Z,14.10
2023-01-19T19:31:27.833Z,13.83
2023-01-19T19:33:57.370Z,14.93
2023-01-19T19:36:27.039Z,14.90
2023-01-19T19:39:01.305Z,15.23
2023-01-19T19:41:32.560Z,14.87
2023-01-19T19:44:07.077Z,15.90
2023-01-19T19:46:38.299Z,15.97
2023-01-19T19:49:15.498Z,15.23
2023-01-19T19:51:44.611Z,15.63
2023-01-19T19:54:29.867Z,16.93
2023-01-19T19:57:07.143Z,14.87
2023-01-19T19:59:45.365Z,16.33
2023-01-19T20:02:26.685Z,14.90
2023-01-19T20:04:55.249Z,15.87
2023-01-19T20:07:24.142Z,15.63
2023-01-19T20:09:55.312Z,15.70
2023-01-19T20:12:23.902Z,15.23
2023-01-19T20:14:52.278Z,16.23
2023-01-19T20:17:26.592Z,15.77
2023-01-19T20:20:05.293Z,15.30
2023-01-19T20:22:34.731Z,17.50
2023-01-19T20:25:06.767Z,16.53
2023-01-19T20:27:36.062Z,15.20
2023-01-19T20:30:06.003Z,15.60
2023-01-19T20:32:36.105Z,15.13
2023-01-19T20:35:14.316Z,15.07
2023-01-19T20:37:51.380Z,14.20
2023-01-19T20:40:22.588Z,14.67
2023-01-19T20:42:51.312Z,14.17
2023-01-19T20:45:21.116Z,15.13
2023-01-19T20:47:50.161Z,14.43
2023-01-19T20:50:23.116Z,15.83
2023-01-19T20:52:53.247Z,15.93
2023-01-19T20:55:23.960Z,15.37
2023-01-19T20:57:52.676Z,13.83
2023-01-19T21:00:27.843Z,15.00
2023-01-19T21:03:08.817Z,15.03
2023-01-19T21:05:44.794Z,15.80
2023-01-19T21:08:14.303Z,15.53
2023-01-19T21:10:59.363Z,29.40
2023-01-19T21:13:28.050Z,16.33
2023-01-19T21:15:56.708Z,15.73
2023-01-19T21:18:28.045Z,16.87
2023-01-19T21:20:57.505Z,16.90
2023-01-19T21:23:26.782Z,17.73
2023-01-19T21:26:05.992Z,17.03
2023-01-19T21:28:35.023Z,17.50
2023-01-19T21:31:07.661Z,16.07
2023-01-19T21:33:36.504Z,17.57
2023-01-19T21:36:06.537Z,16.03
2023-01-19T21:38:38.344Z,16.37
2023-01-19T21:41:15.253Z,17.03
2023-01-19T21:43:43.962Z,16.53
2023-01-19T21:46:14.931Z,15.90
2023-01-19T21:48:47.785Z,15.67
2023-01-19T21:51:16.788Z,16.83
2023-01-19T21:54:00.040Z,17.37
2023-01-19T21:56:31.888Z,17.97
2023-01-19T21:59:02.959Z,16.00
2023-01-19T22:01:32.284Z,17.47
2023-01-19T22:04:01.308Z,16.53
2023-01-19T22:06:30.546Z,16.67
2023-01-19T22:09:00.989Z,17.10
2023-01-19T22:11:31.412Z,15.10
2023-01-19T22:14:06.074Z,17.03
2023-01-19T22:16:48.949Z,18.00
2023-01-19T22:19:17.271Z,16.17
2023-01-19T22:21:45.829Z,15.53
2023-01-19T22:24:14.201Z,23.77
2023-01-19T22:26:44.277Z,17.87
2023-01-19T22:29:13.419Z,18.43
2023-01-19T22:31:43.207Z,18.23
2023-01-19T22:34:15.660Z,16.07
2023-01-19T22:36:45.671Z,16.67
2023-01-19T22:39:15.403Z,15.67
2023-01-19T22:41:48.171Z,15.03
2023-01-19T22:44:18.291Z,14.67
2023-01-19T22:46:53.589Z,15.13
2023-01-19T22:49:25.134Z,15.57
2023-01-19T22:51:55.898Z,15.67
2023-01-19T22:54:25.456Z,14.37
2023-01-19T22:56:56.573Z,15.10
2023-01-19T22:59:24.806Z,14.87
2023-01-19T23:01:54.560Z,15.37
2023-01-19T23:04:25.618Z,15.53
2023-01-19T23:06:53.978Z,15.57
2023-01-19T23:09:25.978Z,15.17
2023-01-19T23:11:57.051Z,16.20
2023-01-19T23:14:26.042Z,15.83
2023-01-19T23:17:05.628Z,16.53
2023-01-19T23:19:35.276Z,16.17
2023-01-19T23:22:07.976Z,16.77
2023-01-19T23:24:40.172Z,17.00
2023-01-19T23:27:18.337Z,17.10
2023-01-19T23:29:49.712Z,16.13
2023-01-19T23:32:19.265Z,18.87
2023-01-19T23:34:47.602Z,18.13
2023-01-19T23:37:17.372Z,16.03
2023-01-19T23:39:46.992Z,15.73
2023-01-19T23:42:19.151Z,17.47
2023-01-19T23:44:47.594Z,18.03
2023-01-19T23:47:49.747Z,17.13
2023-01-19T23:50:41.676Z,16.13
2023-01-19T23:53:10.030Z,16.20
2023-01-19T23:55:43.055Z,16.73
2023-01-19T23:58:13.829Z,16.60
